Time;durP1;ratioP1;P1;durP2;ratioP2;P2;SDS_P1;SDS_P2;PMS_P1;PMS_P2;Temp;Humidity;BMP_temperature;BMP_pressure;BME280_temperature;BME280_humidity;BME280_pressure;Samples;Min_cycle;Max_cycle;Signal;HPM_P1;HPM_P2
2023/03/19 00:00:32;;;;;;;34.97;11.80;;;;;;;-147.16;39.93;77098.59;3976845;30;21121;-62
2023/03/19 00:02:59;;;;;;;28.40;11.90;;;;;;;-147.16;39.77;77090.50;3978882;30;20752;-62
2023/03/19 00:05:26;;;;;;;32.90;12.30;;;;;;;-147.16;39.81;77100.63;3968077;30;20251;-60
2023/03/19 00:07:52;;;;;;;33.23;12.73;;;;;;;-147.16;39.80;77100.63;3973094;30;20363;-62
2023/03/19 00:10:19;;;;;;;33.33;12.27;;;;;;;-147.16;39.67;77104.66;3975519;30;20299;-61
2023/03/19 00:12:46;;;;;;;31.40;12.00;;;;;;;-147.16;39.73;77098.59;3977717;30;22922;-60
2023/03/19 00:15:14;;;;;;;33.73;12.30;;;;;;;-147.16;40.13;77104.66;3976398;30;22925;-60
2023/03/19 00:17:41;;;;;;;32.00;12.37;;;;;;;-147.16;40.09;77096.56;3971452;30;20255;-60
2023/03/19 00:20:10;;;;;;;34.87;12.07;;;;;;;-147.16;40.16;77112.78;3975221;30;20273;-61
2023/03/19 00:22:38;;;;;;;31.27;12.43;;;;;;;-147.16;40.59;77120.88;3963221;30;20278;-59
2023/03/19 00:25:07;;;;;;;29.53;12.87;;;;;;;-147.16;40.75;77120.88;3965937;30;20259;-62
2023/03/19 00:27:34;;;;;;;32.47;12.27;;;;;;;-147.16;40.33;77116.81;3975543;30;20318;-62
2023/03/19 00:30:01;;;;;;;31.20;12.53;;;;;;;-147.16;40.41;77120.88;3978978;30;20334;-62
2023/03/19 00:32:28;;;;;;;31.23;11.83;;;;;;;-147.16;40.51;77116.81;3971034;30;20244;-63
2023/03/19 00:34:55;;;;;;;31.53;12.33;;;;;;;-147.16;40.26;77096.56;3974855;30;21073;-62
2023/03/19 00:37:22;;;;;;;31.97;12.50;;;;;;;-147.16;40.37;77120.88;3975425;30;20335;-62
2023/03/19 00:39:49;;;;;;;29.63;11.43;;;;;;;-147.16;40.29;77124.91;3972706;30;20251;-62
2023/03/19 00:42:15;;;;;;;34.00;12.07;;;;;;;-147.16;40.50;77124.91;3978588;30;20819;-62
2023/03/19 00:44:42;;;;;;;32.97;11.47;;;;;;;-147.16;40.87;77141.13;3977050;30;23505;-61
2023/03/19 00:47:08;;;;;;;34.43;12.50;;;;;;;-147.16;41.10;77135.03;3980983;30;20425;-63
2023/03/19 00:49:35;;;;;;;34.17;12.67;;;;;;;-147.16;40.86;77133.00;3972261;30;20262;-59
2023/03/19 00:52:03;;;;;;;33.97;12.80;;;;;;;-147.16;40.71;77128.97;3969600;30;20243;-61
2023/03/19 00:54:31;;;;;;;32.00;12.07;;;;;;;-147.16;41.48;77141.13;3965353;30;21679;-62
2023/03/19 00:56:58;;;;;;;31.60;12.23;;;;;;;-147.16;40.58;77133.00;3975065;30;20249;-61
2023/03/19 00:59:25;;;;;;;31.67;12.70;;;;;;;-147.16;40.82;77151.25;3974545;30;21130;-62
2023/03/19 01:01:51;;;;;;;30.97;12.40;;;;;;;-147.16;41.23;77161.38;3974361;30;20314;-62
2023/03/19 01:04:19;;;;;;;26.20;11.77;;;;;;;-147.16;41.23;77161.38;3973805;30;20259;-61
2023/03/19 01:06:45;;;;;;;35.60;12.67;;;;;;;-147.16;41.41;77161.38;3986074;30;20620;-62
2023/03/19 01:09:12;;;;;;;35.77;12.50;;;;;;;-147.16;41.38;77153.25;3976352;30;20257;-60
2023/03/19 01:11:38;;;;;;;41.93;13.70;;;;;;;-147.16;41.28;77157.31;3971104;30;20310;-62
2023/03/19 01:14:05;;;;;;;33.30;13.00;;;;;;;-147.16;41.24;77157.31;3973606;30;20288;-60
2023/03/19 01:16:33;;;;;;;30.37;11.50;;;;;;;-147.16;41.58;77161.38;3974572;30;20650;-63
2023/03/19 01:19:00;;;;;;;35.77;11.83;;;;;;;-147.16;41.38;77169.47;3975593;30;20704;-63
2023/03/19 01:21:29;;;;;;;29.23;11.90;;;;;;;-147.16;41.71;77173.50;3969072;30;22967;-61
2023/03/19 01:23:57;;;;;;;33.27;13.67;;;;;;;-147.16;41.93;77181.59;3975622;30;20360;-61
2023/03/19 01:26:23;;;;;;;32.30;12.57;;;;;;;-147.16;41.96;77201.84;3974250;30;25711;-60
2023/03/19 01:28:50;;;;;;;31.73;12.83;;;;;;;-147.16;42.45;77189.72;3969269;30;20355;-62
2023/03/19 01:31:16;;;;;;;34.00;12.33;;;;;;;-147.16;42.64;77195.78;3968358;30;20311;-63
2023/03/19 01:33:43;;;;;;;37.57;14.13;;;;;;;-147.16;42.50;77211.97;3980726;30;20261;-58
2023/03/19 01:36:10;;;;;;;37.70;13.40;;;;;;;-147.16;42.53;77218.06;3970443;30;20371;-60
2023/03/19 01:38:36;;;;;;;30.00;12.87;;;;;;;-147.16;42.95;77218.06;3974406;30;20467;-61
2023/03/19 01:41:03;;;;;;;27.33;10.87;;;;;;;-147.16;43.31;77230.19;3978198;30;20247;-61
2023/03/19 01:43:31;;;;;;;32.37;12.50;;;;;;;-147.16;42.80;77224.13;3974834;30;20705;-61
2023/03/19 01:46:01;;;;;;;32.77;12.93;;;;;;;-147.16;42.78;77226.16;3973204;30;20282;-62
2023/03/19 01:48:35;;;;;;;34.10;13.47;;;;;;;-147.16;43.33;77234.25;3980422;30;22600;-62
2023/03/19 01:51:03;;;;;;;37.10;13.50;;;;;;;-147.16;43.42;77236.28;3982490;30;21470;-61
2023/03/19 01:53:32;;;;;;;34.53;13.83;;;;;;;-147.16;43.40;77234.25;3974362;30;20635;-64
2023/03/19 01:56:03;;;;;;;35.37;13.03;;;;;;;-147.16;43.64;77242.34;3972276;30;20290;-60
2023/03/19 01:58:29;;;;;;;32.03;13.40;;;;;;;-147.16;43.51;77244.38;3985991;30;20354;-58
2023/03/19 02:00:57;;;;;;;30.93;13.27;;;;;;;-147.16;44.10;77242.34;3975735;30;21583;-62
2023/03/19 02:03:24;;;;;;;33.20;13.07;;;;;;;-147.16;44.14;77246.41;3977995;30;20258;-61
2023/03/19 02:05:51;;;;;;;29.73;12.77;;;;;;;-147.16;44.21;77240.31;3979446;30;20565;-62
2023/03/19 02:08:21;;;;;;;37.10;13.63;;;;;;;-147.16;44.69;77258.56;3977271;30;20314;-64
2023/03/19 02:10:49;;;;;;;35.17;13.33;;;;;;;-147.16;44.40;77258.56;3971945;30;20252;-63
2023/03/19 02:13:15;;;;;;;36.00;14.13;;;;;;;-147.16;44.40;77260.56;3974590;30;21289;-64
2023/03/19 02:15:42;;;;;;;37.03;13.40;;;;;;;-147.16;44.61;77252.47;3976409;30;20354;-62
2023/03/19 02:18:09;;;;;;;35.57;13.77;;;;;;;-147.16;44.40;77250.44;3980376;30;20254;-63
2023/03/19 02:20:53;;;;;;;38.00;13.23;;;;;;;-147.16;44.78;77244.38;3977236;30;20310;-61
2023/03/19 02:23:31;;;;;;;36.17;14.10;;;;;;;-147.16;44.20;77242.34;3969819;30;20240;-60
2023/03/19 02:26:07;;;;;;;35.67;13.37;;;;;;;-147.16;44.20;77244.38;3979549;30;20751;-61
2023/03/19 02:28:38;;;;;;;31.80;13.43;;;;;;;-147.16;44.63;77254.50;3988906;30;21845;-60
2023/03/19 02:31:06;;;;;;;37.80;14.50;;;;;;;-147.16;44.58;77260.56;3979432;30;20635;-60
2023/03/19 02:33:33;;;;;;;31.83;12.53;;;;;;;-147.16;44.27;77254.50;3981162;30;20313;-63
2023/03/19 02:36:01;;;;;;;37.80;13.00;;;;;;;-147.16;44.41;77264.63;3993877;30;20325;-60
2023/03/19 02:38:32;;;;;;;36.10;13.20;;;;;;;-147.16;44.64;77270.69;3978731;30;21786;-64
2023/03/19 02:41:01;;;;;;;39.57;14.40;;;;;;;-147.16;45.12;77276.78;3976845;30;20246;-62
2023/03/19 02:43:30;;;;;;;34.40;13.07;;;;;;;-147.16;45.10;77278.81;3978266;30;20342;-58
2023/03/19 02:45:57;;;;;;;38.67;13.30;;;;;;;-147.16;44.98;77270.69;3975674;30;20244;-61
2023/03/19 02:48:24;;;;;;;35.73;13.60;;;;;;;-147.16;44.65;77282.84;3979502;30;20348;-59
2023/03/19 02:50:51;;;;;;;37.97;13.80;;;;;;;-147.16;45.18;77270.69;3979042;30;21310;-61
2023/03/19 02:53:18;;;;;;;30.50;12.70;;;;;;;-147.16;45.23;77282.84;3974602;30;21884;-62
2023/03/19 02:55:45;;;;;;;37.60;13.60;;;;;;;-147.16;45.11;77278.81;3978866;30;20259;-62
2023/03/19 02:58:11;;;;;;;31.50;12.93;;;;;;;-147.16;45.21;77276.78;3978640;30;20339;-61
2023/03/19 03:00:38;;;;;;;35.60;12.80;;;;;;;-147.16;45.02;77286.91;3979726;30;20251;-59
2023/03/19 03:03:06;;;;;;;36.30;13.33;;;;;;;-147.16;45.18;77292.97;3974933;30;20331;-60
2023/03/19 03:05:33;;;;;;;36.37;13.30;;;;;;;-147.16;45.11;77295.00;3979107;30;20943;-60
2023/03/19 03:08:00;;;;;;;32.50;12.97;;;;;;;-147.16;45.81;77307.16;3976591;30;21828;-59
2023/03/19 03:10:27;;;;;;;34.40;13.00;;;;;;;-147.16;45.48;77286.91;3984268;30;20257;-62
2023/03/19 03:12:54;;;;;;;38.40;13.67;;;;;;;-147.16;45.91;77307.16;3971044;30;20248;-61
2023/03/19 03:15:20;;;;;;;37.23;13.53;;;;;;;-147.16;46.13;77315.25;3982037;30;20239;-61
2023/03/19 03:17:47;;;;;;;34.27;13.60;;;;;;;-147.16;46.04;77317.28;3974761;30;20280;-62
2023/03/19 03:20:16;;;;;;;34.47;12.53;;;;;;;-147.16;45.67;77307.16;3977909;30;20930;-62
2023/03/19 03:22:43;;;;;;;36.60;13.10;;;;;;;-147.16;45.87;77305.13;3979610;30;20258;-61
2023/03/19 03:25:10;;;;;;;31.67;13.17;;;;;;;-147.16;46.06;77305.13;3975113;30;21289;-62
2023/03/19 03:27:37;;;;;;;34.17;13.77;;;;;;;-147.16;45.77;77311.19;3975155;30;20349;-61
2023/03/19 03:30:07;;;;;;;35.07;13.40;;;;;;;-147.16;45.46;77303.09;3974390;30;20259;-61
2023/03/19 03:32:35;;;;;;;36.13;13.60;;;;;;;-147.16;45.71;77305.13;3975099;30;20237;-60
2023/03/19 03:35:04;;;;;;;41.43;13.83;;;;;;;-147.16;46.08;77315.25;3981325;30;20815;-60
2023/03/19 03:37:30;;;;;;;33.50;12.70;;;;;;;-147.16;46.09;77303.09;3979812;30;21362;-64
2023/03/19 03:39:57;;;;;;;40.23;13.43;;;;;;;-147.16;46.11;77319.28;3978295;30;20258;-60
2023/03/19 03:42:23;;;;;;;36.03;12.97;;;;;;;-147.16;45.67;77313.22;3977496;30;20248;-61
2023/03/19 03:44:50;;;;;;;33.23;12.67;;;;;;;-147.16;45.54;77311.19;3974617;30;20674;-61
2023/03/19 03:47:16;;;;;;;37.87;14.23;;;;;;;-147.16;45.76;77321.31;3976386;30;20246;-59
2023/03/19 03:49:44;;;;;;;32.17;12.43;;;;;;;-147.16;45.65;77315.25;3980663;30;20237;-60
2023/03/19 03:52:11;;;;;;;36.10;14.00;;;;;;;-147.16;46.11;77307.16;3980161;30;20255;-61
2023/03/19 03:54:37;;;;;;;36.23;13.60;;;;;;;-147.16;46.21;77319.28;3976273;30;20287;-64
2023/03/19 03:57:04;;;;;;;32.00;13.23;;;;;;;-147.16;45.98;77313.22;3975908;30;20274;-62
2023/03/19 03:59:31;;;;;;;32.60;12.77;;;;;;;-147.16;45.96;77323.34;3974193;30;20791;-61
2023/03/19 04:01:57;;;;;;;33.70;13.03;;;;;;;-147.16;46.07;77325.38;3972108;30;20267;-61
2023/03/19 04:04:25;;;;;;;30.47;11.77;;;;;;;-147.16;45.52;77307.16;3978570;30;20655;-60
2023/03/19 04:06:51;;;;;;;33.50;12.87;;;;;;;-147.16;45.09;77290.94;3974356;30;25980;-58
2023/03/19 04:09:18;;;;;;;29.07;12.03;;;;;;;-147.16;45.10;77288.91;3972806;30;20395;-62
2023/03/19 04:11:45;;;;;;;29.50;12.43;;;;;;;-147.16;45.67;77299.03;3975961;30;26143;-60
2023/03/19 04:14:12;;;;;;;33.50;12.67;;;;;;;-147.16;45.72;77305.13;3974370;30;20327;-61
2023/03/19 04:16:38;;;;;;;33.87;12.37;;;;;;;-147.16;46.13;77311.19;3977422;30;20258;-61
2023/03/19 04:19:06;;;;;;;31.50;12.50;;;;;;;-147.16;45.72;77307.16;3975596;30;20251;-61
2023/03/19 04:21:33;;;;;;;32.10;12.63;;;;;;;-147.16;45.91;77315.25;3972680;30;20241;-60
2023/03/19 04:24:01;;;;;;;38.23;13.53;;;;;;;-147.16;46.34;77319.28;3973153;30;20417;-59
2023/03/19 04:26:28;;;;;;;36.07;13.40;;;;;;;-147.16;46.00;77307.16;3974851;30;20329;-61
2023/03/19 04:28:54;;;;;;;38.47;12.83;;;;;;;-147.16;45.86;77299.03;3974072;30;20989;-60
2023/03/19 04:31:21;;;;;;;31.97;13.30;;;;;;;-147.16;45.75;77307.16;3978990;30;20688;-60
2023/03/19 04:33:48;;;;;;;34.30;12.17;;;;;;;-147.16;45.67;77299.03;3975177;30;21325;-60
2023/03/19 04:36:16;;;;;;;29.97;11.90;;;;;;;-147.16;45.84;77305.13;3977959;30;20314;-61
2023/03/19 04:38:43;;;;;;;28.63;12.63;;;;;;;-147.16;45.80;77303.09;3978505;30;20373;-61
2023/03/19 04:41:09;;;;;;;28.63;11.90;;;;;;;-147.16;46.14;77305.13;3973771;30;20239;-61
2023/03/19 04:43:36;;;;;;;31.93;12.80;;;;;;;-147.16;45.78;77317.28;3974757;30;20247;-61
2023/03/19 04:46:03;;;;;;;33.17;13.00;;;;;;;-147.16;46.01;77323.34;3971486;30;20318;-58
2023/03/19 04:48:30;;;;;;;33.27;12.90;;;;;;;-147.16;46.01;77323.34;3977757;30;20361;-60
2023/03/19 04:50:57;;;;;;;34.80;13.10;;;;;;;-147.16;45.72;77319.28;3973005;30;21251;-59
2023/03/19 04:53:24;;;;;;;37.63;12.10;;;;;;;-147.16;46.40;77325.38;3974725;30;20968;-61
2023/03/19 04:55:50;;;;;;;34.57;12.93;;;;;;;-147.16;46.29;77331.44;3972341;30;20429;-60
2023/03/19 04:58:17;;;;;;;34.37;12.70;;;;;;;-147.16;46.25;77333.47;3974861;30;23729;-62
2023/03/19 05:00:46;;;;;;;32.83;12.07;;;;;;;-147.16;46.40;77331.44;3977628;30;20248;-63
2023/03/19 05:03:14;;;;;;;36.00;12.27;;;;;;;-147.16;46.32;77329.41;4010556;30;20324;-62
2023/03/19 05:05:40;;;;;;;28.77;12.80;;;;;;;-147.16;46.45;77339.53;3994977;30;20247;-63
2023/03/19 05:08:08;;;;;;;28.13;11.83;;;;;;;-147.16;46.05;77341.56;4004398;30;21267;-62
2023/03/19 05:10:36;;;;;;;33.60;13.17;;;;;;;-147.16;46.42;77347.66;3996539;30;22465;-62
2023/03/19 05:13:03;;;;;;;32.43;12.60;;;;;;;-147.16;46.20;77347.66;4000031;30;20914;-61
2023/03/19 05:15:30;;;;;;;36.70;13.00;;;;;;;-147.16;46.68;77347.66;3983230;30;20429;-62
2023/03/19 05:17:57;;;;;;;37.40;13.83;;;;;;;-147.16;46.37;77343.59;4000626;30;20447;-61
2023/03/19 05:20:24;;;;;;;30.50;13.10;;;;;;;-147.16;46.23;77339.53;3994815;30;21401;-61
2023/03/19 05:22:52;;;;;;;33.60;12.67;;;;;;;-147.16;46.29;77349.66;3999244;30;25173;-61
2023/03/19 05:25:18;;;;;;;33.93;12.67;;;;;;;-147.16;46.16;77341.56;4012875;30;20306;-62
2023/03/19 05:27:45;;;;;;;33.63;13.43;;;;;;;-147.16;46.40;77351.69;3972401;30;20280;-64
2023/03/19 05:30:12;;;;;;;33.93;13.73;;;;;;;-147.16;46.17;77341.56;3983010;30;20350;-62
2023/03/19 05:32:39;;;;;;;32.67;12.87;;;;;;;-147.16;46.45;77343.59;3987692;30;20248;-62
2023/03/19 05:35:06;;;;;;;34.00;13.83;;;;;;;-147.16;46.63;77333.47;3986884;30;25344;-60
2023/03/19 05:37:33;;;;;;;39.87;12.90;;;;;;;-147.16;45.94;77343.59;3978329;30;25335;-60
2023/03/19 05:39:59;;;;;;;41.60;13.10;;;;;;;-147.16;46.53;77341.56;3975199;30;20259;-63
2023/03/19 05:42:26;;;;;;;34.63;13.23;;;;;;;-147.16;46.08;77327.41;3993644;30;21124;-61
2023/03/19 05:44:52;;;;;;;34.17;12.60;;;;;;;-147.16;45.60;77317.28;3977859;30;21621;-63
2023/03/19 05:47:20;;;;;;;34.83;12.13;;;;;;;-147.16;45.91;77307.16;3976178;30;25826;-59
2023/03/19 05:49:46;;;;;;;32.63;13.10;;;;;;;-147.16;45.54;77297.03;3978724;30;20771;-61
2023/03/19 05:52:13;;;;;;;34.47;13.47;;;;;;;-147.16;44.98;77297.03;3988578;30;20250;-59
2023/03/19 05:54:40;;;;;;;28.63;12.27;;;;;;;-147.16;45.16;77290.94;3985784;30;20761;-55
2023/03/19 05:57:07;;;;;;;37.90;13.50;;;;;;;-147.16;44.62;77274.75;3981228;30;20567;-59
2023/03/19 05:59:34;;;;;;;26.93;11.80;;;;;;;-147.16;44.09;77260.56;3993838;30;20392;-59
2023/03/19 06:02:01;;;;;;;32.17;13.00;;;;;;;-147.16;44.19;77250.44;3990124;30;20370;-61
2023/03/19 06:04:28;;;;;;;32.33;12.63;;;;;;;-147.16;44.24;77234.25;3974257;30;21466;-61
2023/03/19 06:06:54;;;;;;;29.83;11.97;;;;;;;-147.16;43.57;77218.06;3990476;30;25805;-63
2023/03/19 06:09:21;;;;;;;33.83;12.40;;;;;;;-147.16;42.76;77207.94;3977149;30;21381;-61
2023/03/19 06:11:48;;;;;;;34.83;13.10;;;;;;;-147.16;42.74;77195.78;3977847;30;20704;-61
2023/03/19 06:14:14;;;;;;;36.53;13.57;;;;;;;-147.16;42.46;77193.75;3983949;30;20253;-63
2023/03/19 06:16:41;;;;;;;34.13;13.77;;;;;;;-147.16;42.57;77193.75;3976476;30;22328;-63
2023/03/19 06:19:08;;;;;;;34.63;12.67;;;;;;;-147.16;42.45;77175.53;3997826;30;20696;-62
2023/03/19 06:21:34;;;;;;;32.57;12.57;;;;;;;-147.16;41.85;77165.41;3979308;30;20262;-60
2023/03/19 06:24:02;;;;;;;35.40;13.10;;;;;;;-147.16;42.03;77155.28;3988245;30;20257;-61
2023/03/19 06:26:29;;;;;;;33.23;13.30;;;;;;;-147.16;41.38;77141.13;3977424;30;20257;-61
2023/03/19 06:28:56;;;;;;;32.60;13.17;;;;;;;-147.16;41.38;77153.25;3986834;30;20769;-61
2023/03/19 06:31:22;;;;;;;33.07;13.63;;;;;;;-147.16;41.83;77151.25;3973829;30;20850;-60
2023/03/19 06:33:49;;;;;;;32.83;12.73;;;;;;;-147.16;41.51;77128.97;3982169;30;20248;-61
2023/03/19 06:36:16;;;;;;;33.73;13.03;;;;;;;-147.16;41.47;77122.91;3974748;30;21029;-62
2023/03/19 06:38:43;;;;;;;39.90;14.33;;;;;;;-147.16;41.28;77110.75;3983697;30;22098;-63
2023/03/19 06:41:09;;;;;;;35.77;13.23;;;;;;;-147.16;40.63;77086.44;3992017;30;20257;-62
2023/03/19 06:43:36;;;;;;;32.70;13.60;;;;;;;-147.16;40.60;77080.38;3977413;30;20247;-63
2023/03/19 06:46:03;;;;;;;33.13;12.80;;;;;;;-147.16;39.84;77068.22;3980702;30;20351;-58
2023/03/19 06:48:30;;;;;;;27.93;12.43;;;;;;;-147.16;39.86;77064.19;3983042;30;20326;-62
2023/03/19 06:50:57;;;;;;;29.93;12.10;;;;;;;-147.16;39.56;77039.88;3983192;30;20742;-65
2023/03/19 06:53:24;;;;;;;33.77;13.07;;;;;;;-147.16;39.25;77015.59;3982863;30;20514;-64
2023/03/19 06:55:50;;;;;;;37.37;13.70;;;;;;;-147.16;38.59;76983.19;3974480;30;20255;-60
2023/03/19 06:58:17;;;;;;;30.63;13.03;;;;;;;-147.16;38.24;76958.88;3999932;30;20379;-62
2023/03/19 07:00:44;;;;;;;32.50;13.10;;;;;;;-147.16;38.26;76946.75;3990689;30;25446;-60
2023/03/19 07:03:11;;;;;;;32.40;13.47;;;;;;;-147.16;37.53;76934.59;3981222;30;20247;-62
2023/03/19 07:05:37;;;;;;;34.03;13.10;;;;;;;-147.16;37.42;76902.19;3975169;30;20338;-62
2023/03/19 07:08:10;;;;;;;33.27;13.70;;;;;;;-147.16;37.13;76879.94;3988746;30;20453;-60
2023/03/19 07:10:38;;;;;;;39.20;13.10;;;;;;;-147.16;36.71;76873.84;3994691;30;23785;-63
2023/03/19 07:13:05;;;;;;;29.27;13.03;;;;;;;-147.16;37.13;76865.75;3989290;30;21720;-60
2023/03/19 07:15:32;;;;;;;35.23;14.13;;;;;;;-147.16;36.31;76829.31;3982001;30;20335;-66
2023/03/19 07:17:59;;;;;;;29.80;12.90;;;;;;;-147.16;36.32;76843.50;3990821;30;20302;-60
2023/03/19 07:20:25;;;;;;;34.73;13.00;;;;;;;-147.16;36.73;76863.72;3976495;30;20251;-58
2023/03/19 07:22:53;;;;;;;31.20;12.90;;;;;;;-147.16;36.37;76853.63;3987431;30;20244;-59
2023/03/19 07:25:19;;;;;;;30.00;12.97;;;;;;;-147.16;36.41;76831.34;4001056;30;21782;-61
2023/03/19 07:27:46;;;;;;;29.13;12.70;;;;;;;-147.16;36.18;76805.03;3999410;30;22301;-62
2023/03/19 07:30:13;;;;;;;30.67;14.23;;;;;;;-147.16;35.79;76768.56;3983152;30;20263;-64
2023/03/19 07:32:40;;;;;;;34.03;14.00;;;;;;;-147.16;34.84;76671.41;3975909;30;21497;-61
2023/03/19 07:35:07;;;;;;;33.00;14.40;;;;;;;-147.16;33.15;76533.75;3982812;30;20255;-61
2023/03/19 07:37:33;;;;;;;31.57;13.13;;;;;;;-147.16;30.15;76230.09;3997927;30;22030;-62
2023/03/19 07:40:00;;;;;;;33.07;13.47;;;;;;;-147.16;27.52;75827.28;3983962;30;20282;-59
2023/03/19 07:42:27;;;;;;;32.27;13.50;;;;;;;-147.16;23.50;75424.50;3982097;30;20268;-61
2023/03/19 07:44:53;;;;;;;29.20;13.30;;;;;;;-147.16;22.16;75145.22;3981518;30;20311;-61
2023/03/19 07:47:20;;;;;;;35.43;14.23;;;;;;;-147.16;20.31;74908.44;3983495;30;22562;-57
2023/03/19 07:49:55;;;;;;;30.13;13.33;;;;;;;-147.16;19.61;74750.59;3980123;30;21130;-60
2023/03/19 07:52:22;;;;;;;28.30;13.90;;;;;;;-147.16;18.94;74663.59;4004382;30;21883;-61
2023/03/19 07:54:49;;;;;;;28.43;13.90;;;;;;;-147.16;18.38;74592.78;3981237;30;20322;-63
2023/03/19 07:57:16;;;;;;;33.87;13.67;;;;;;;-147.16;18.75;74661.56;4010552;30;22347;-63
2023/03/19 07:59:42;;;;;;;27.90;13.43;;;;;;;-147.16;18.82;74706.09;3988261;30;21757;-63
2023/03/19 08:02:10;;;;;;;25.80;13.67;;;;;;;-147.16;18.76;74718.22;3993527;30;21158;-64
2023/03/19 08:04:38;;;;;;;24.77;12.77;;;;;;;-147.16;20.15;74906.41;3970068;30;25115;-57
2023/03/19 08:07:05;;;;;;;27.20;13.37;;;;;;;-147.16;19.68;74801.19;3979330;30;20322;-61
2023/03/19 08:09:32;;;;;;;24.17;13.20;;;;;;;-147.16;19.81;74865.94;4003129;30;20275;-63
2023/03/19 08:11:59;;;;;;;27.67;14.13;;;;;;;-147.16;19.51;74768.81;3990942;30;20970;-60
2023/03/19 08:14:26;;;;;;;28.50;14.37;;;;;;;-147.16;18.92;74627.16;3982948;30;21215;-63
2023/03/19 08:16:52;;;;;;;27.73;14.27;;;;;;;-147.16;19.42;74724.31;4066612;30;25399;-61
2023/03/19 08:19:19;;;;;;;25.37;13.73;;;;;;;-147.16;19.96;74863.94;3977443;30;20317;-70
2023/03/19 08:21:46;;;;;;;27.55;13.30;;;;;;;-147.16;20.30;74857.84;3982556;30;20274;-68
2023/03/19 08:24:13;;;;;;;24.63;13.57;;;;;;;-147.16;20.79;75112.84;4002239;30;20959;-68
2023/03/19 08:26:39;;;;;;;28.77;14.37;;;;;;;-147.16;21.52;75120.94;3997734;30;20260;-63
2023/03/19 08:29:07;;;;;;;27.60;13.33;;;;;;;-147.16;22.19;75303.06;3994232;30;22150;-65
2023/03/19 08:31:34;;;;;;;25.90;13.03;;;;;;;-147.16;22.13;75163.44;3989868;30;21231;-63
2023/03/19 08:34:04;;;;;;;26.17;13.20;;;;;;;-147.16;23.01;75371.88;4012048;30;21232;-63
2023/03/19 08:36:31;;;;;;;30.43;14.20;;;;;;;-147.16;22.93;75422.47;4015486;30;25455;-64
2023/03/19 08:38:58;;;;;;;29.37;13.03;;;;;;;-147.16;23.30;75426.53;4038573;30;21666;-64
2023/03/19 08:41:24;;;;;;;24.87;12.47;;;;;;;-147.16;24.42;75549.97;4011967;30;20243;-64
2023/03/19 08:43:51;;;;;;;26.17;12.23;;;;;;;-147.16;24.68;75584.38;4005138;30;20315;-63
2023/03/19 08:46:18;;;;;;;24.17;11.90;;;;;;;-147.16;24.27;75612.72;3994036;30;20246;-65
2023/03/19 08:48:45;;;;;;;27.00;12.30;;;;;;;-147.16;25.50;75790.84;3977258;30;22526;-61
2023/03/19 08:51:11;;;;;;;23.33;10.93;;;;;;;-147.16;26.30;75902.16;3978856;30;20248;-62
2023/03/19 08:53:38;;;;;;;23.93;11.30;;;;;;;-147.16;27.76;76019.56;4010730;30;21266;-61
2023/03/19 08:56:09;;;;;;;23.73;10.80;;;;;;;-147.16;27.35;75964.91;3995067;30;20258;-63
2023/03/19 08:58:35;;;;;;;23.20;11.20;;;;;;;-147.16;27.44;75950.75;4020335;30;20342;-63
2023/03/19 09:01:07;;;;;;;43.77;12.17;;;;;;;-147.16;27.38;75956.81;4020655;30;20342;-60
2023/03/19 09:03:34;;;;;;;24.47;10.47;;;;;;;-147.16;27.20;75954.78;4022156;30;20270;-65
2023/03/19 09:06:03;;;;;;;20.10;10.30;;;;;;;-147.16;27.02;75956.81;4010848;30;20286;-65
2023/03/19 10:08:52;;;;;;;20.70;9.30;;;;;;;-147.16;29.06;76076.25;4693738;30;20268;-61
2023/03/19 10:11:49;;;;;;;19.80;9.47;;;;;;;-147.16;28.66;76066.13;3983409;30;25528;-63
2023/03/19 10:14:37;;;;;;;17.20;8.97;;;;;;;-147.16;28.73;76084.34;3986592;30;20269;-63
2023/03/19 10:17:06;;;;;;;18.80;8.60;;;;;;;-147.16;29.17;76106.59;3992782;30;22546;-60
2023/03/19 10:19:47;;;;;;;18.77;9.33;;;;;;;-147.16;29.70;76155.19;3990546;30;20293;-60
2023/03/19 10:22:36;;;;;;;18.60;9.20;;;;;;;-147.16;29.90;76126.84;3996801;30;21343;-62
2023/03/19 10:25:05;;;;;;;24.13;9.47;;;;;;;-147.16;29.69;76076.25;3982987;30;20396;-62
2023/03/19 10:27:31;;;;;;;24.67;9.33;;;;;;;-147.16;29.38;76078.25;4011827;30;21828;-61
2023/03/19 10:29:58;;;;;;;19.07;9.03;;;;;;;-147.16;29.19;76070.16;4038272;30;20243;-62
2023/03/19 10:32:38;;;;;;;21.27;10.13;;;;;;;-147.16;29.41;76084.34;3990686;30;20249;-60
2023/03/19 10:35:19;;;;;;;20.67;9.00;;;;;;;-147.16;29.74;76064.09;4014857;30;22161;-61
2023/03/19 10:37:47;;;;;;;20.17;9.53;;;;;;;-147.16;29.06;76056.00;3995979;30;22954;-63
2023/03/19 10:40:22;;;;;;;18.37;9.30;;;;;;;-147.16;29.44;76062.06;3981546;30;20604;-62
2023/03/19 10:43:00;;;;;;;20.80;9.47;;;;;;;-147.16;29.11;76066.13;3983965;30;20297;-63
2023/03/19 10:45:36;;;;;;;20.73;9.47;;;;;;;-147.16;29.64;76092.44;3993055;30;20277;-60
2023/03/19 10:48:05;;;;;;;17.77;9.30;;;;;;;-147.16;29.48;76082.31;3980562;30;20309;-64
2023/03/19 10:50:37;;;;;;;19.03;8.57;;;;;;;-147.16;29.80;76092.44;3989885;30;20333;-60
2023/03/19 10:53:28;;;;;;;17.00;8.63;;;;;;;-147.16;29.54;76080.28;3988844;30;21303;-63
2023/03/19 10:56:18;;;;;;;20.10;8.87;;;;;;;-147.16;29.94;76047.91;4001396;30;20256;-61
2023/03/19 10:58:58;;;;;;;16.10;8.90;;;;;;;-147.16;29.06;76007.41;3997392;30;20449;-62
2023/03/19 11:01:38;;;;;;;17.83;8.73;;;;;;;-147.16;29.72;75958.84;4009510;30;20248;-65
2023/03/19 11:04:16;;;;;;;18.67;9.00;;;;;;;-147.16;29.10;76001.34;3994253;30;20245;-60
2023/03/19 11:06:49;;;;;;;17.27;8.70;;;;;;;-147.16;28.96;76003.38;4006252;30;21922;-63
2023/03/19 11:09:23;;;;;;;20.37;9.27;;;;;;;-147.16;29.28;76023.63;3983266;30;21262;-63
2023/03/19 11:11:58;;;;;;;18.47;8.77;;;;;;;-147.16;29.16;75991.22;3983069;30;20367;-62
2023/03/19 11:14:30;;;;;;;21.83;9.80;;;;;;;-147.16;29.22;75950.75;3993459;30;23411;-63
2023/03/19 11:17:19;;;;;;;15.93;8.27;;;;;;;-147.16;29.10;75928.47;3961222;30;20289;-63
2023/03/19 11:19:53;;;;;;;15.50;8.57;;;;;;;-147.16;28.57;75922.41;3981268;30;20247;-62
2023/03/19 11:22:31;;;;;;;15.97;8.77;;;;;;;-147.16;28.31;75920.38;3978065;30;20383;-62
2023/03/19 11:25:22;;;;;;;20.23;8.83;;;;;;;-147.16;28.21;75881.91;3976532;30;20285;-62
2023/03/19 11:28:03;;;;;;;19.67;9.03;;;;;;;-147.16;28.52;75914.31;3988739;30;20766;-59
2023/03/19 11:30:39;;;;;;;19.30;8.67;;;;;;;-147.16;28.38;75938.59;3984815;30;20323;-61
2023/03/19 11:33:32;;;;;;;18.83;8.33;;;;;;;-147.16;28.61;75920.38;3978182;30;21312;-62
2023/03/19 11:36:27;;;;;;;15.17;8.37;;;;;;;-147.16;29.10;75938.59;3980561;30;22362;-61
2023/03/19 11:39:16;;;;;;;16.63;8.53;;;;;;;-147.16;28.40;75890.03;3987372;30;25775;-63
2023/03/19 11:41:52;;;;;;;17.97;9.03;;;;;;;-147.16;28.58;75898.13;3983596;30;20272;-64
2023/03/19 11:44:33;;;;;;;23.47;9.23;;;;;;;-147.16;28.66;75910.25;3989061;30;20265;-60
2023/03/19 11:47:13;;;;;;;16.53;8.43;;;;;;;-147.16;28.32;75892.03;3974740;30;20263;-62
2023/03/19 11:49:58;;;;;;;19.20;9.10;;;;;;;-147.16;28.92;75914.31;3983978;30;21320;-61
2023/03/19 11:52:34;;;;;;;19.10;9.10;;;;;;;-147.16;28.97;75926.44;4006345;30;20428;-60
2023/03/19 11:55:20;;;;;;;14.53;7.87;;;;;;;-147.16;28.95;75914.31;3976256;30;20348;-64
2023/03/19 11:57:56;;;;;;;17.63;8.90;;;;;;;-147.16;28.36;75908.25;3989198;30;20520;-65
2023/03/19 12:00:49;;;;;;;21.90;9.17;;;;;;;-147.16;28.34;75843.47;3990381;30;21511;-62
2023/03/19 12:03:27;;;;;;;16.17;8.60;;;;;;;-147.16;28.85;75809.06;4007679;30;20358;-63
2023/03/19 12:06:15;;;;;;;15.60;8.90;;;;;;;-147.16;27.91;75811.06;3980014;30;21841;-62
2023/03/19 12:08:46;;;;;;;18.87;8.00;;;;;;;-147.16;27.99;75800.97;3993600;30;20511;-62
2023/03/19 12:11:31;;;;;;;15.23;8.30;;;;;;;-147.16;28.25;75790.84;3990664;30;21737;-61